Time;durP1;ratioP1;P1;durP2;ratioP2;P2;SDS_P1;SDS_P2;PMS_P1;PMS_P2;Temp;Humidity;BMP_temperature;BMP_pressure;BME280_temperature;BME280_humidity;BME280_pressure;Samples;Min_cycle;Max_cycle;Signal;HPM_P1;HPM_P2
2022/10/17 04:02:11;;;;;;;15.85;8.98;;;;;;;8.88;100.00;101808.09;6536913;27;20430;-85
2022/10/17 04:05:14;;;;;;;16.35;9.73;;;;;;;8.87;100.00;101805.56;6525782;27;33944;-89
2022/10/17 04:08:17;;;;;;;14.55;9.45;;;;;;;8.82;100.00;101808.62;6524662;27;34157;-88
2022/10/17 04:11:24;;;;;;;20.27;9.95;;;;;;;8.79;100.00;101808.91;6504999;27;32845;-88
2022/10/17 04:14:27;;;;;;;15.68;9.50;;;;;;;8.77;100.00;101818.91;6525027;27;34478;-85
2022/10/17 04:17:31;;;;;;;14.70;10.18;;;;;;;8.79;100.00;101825.00;6524856;27;34877;-87
2022/10/17 04:20:39;;;;;;;20.95;9.63;;;;;;;8.75;100.00;101816.37;6525626;27;33917;-87
2022/10/17 04:23:42;;;;;;;17.67;10.35;;;;;;;8.74;100.00;101816.47;6524867;27;33973;-87
2022/10/17 04:26:50;;;;;;;16.15;9.02;;;;;;;8.72;100.00;101822.00;6524521;27;34435;-87
2022/10/17 04:29:52;;;;;;;17.50;9.02;;;;;;;8.78;100.00;101821.47;6524741;27;33939;-87
2022/10/17 04:32:55;;;;;;;13.55;8.23;;;;;;;8.76;100.00;101833.31;6505514;27;33760;-84
2022/10/17 04:35:59;;;;;;;17.35;9.35;;;;;;;8.74;100.00;101819.16;6525379;27;34576;-84
2022/10/17 04:39:03;;;;;;;14.63;9.05;;;;;;;8.74;100.00;101828.06;6505664;27;32231;-85
2022/10/17 04:42:07;;;;;;;14.75;9.18;;;;;;;8.70;100.00;101831.16;6524223;27;33623;-84
2022/10/17 04:45:09;;;;;;;18.85;8.93;;;;;;;8.69;100.00;101833.00;6525536;27;33917;-84
2022/10/17 04:48:12;;;;;;;16.25;9.50;;;;;;;8.67;100.00;101834.13;6524425;27;34295;-85
2022/10/17 04:51:17;;;;;;;17.58;9.38;;;;;;;8.70;100.00;101829.31;6524774;27;33693;-85
2022/10/17 04:54:30;;;;;;;15.27;9.32;;;;;;;8.70;100.00;101834.69;6505401;27;32429;-85
2022/10/17 04:57:34;;;;;;;16.05;9.10;;;;;;;8.69;100.00;101841.06;6524508;27;33962;-85
2022/10/17 05:00:37;;;;;;;16.30;9.50;;;;;;;8.67;100.00;101848.38;6537589;27;34743;-85
2022/10/17 05:03:41;;;;;;;17.77;10.10;;;;;;;8.78;100.00;101850.16;6576245;27;34075;-85
2022/10/17 05:06:43;;;;;;;16.35;9.63;;;;;;;8.81;100.00;101845.38;6559262;27;33119;-85
2022/10/17 05:09:47;;;;;;;17.00;9.30;;;;;;;8.80;100.00;101854.44;6579591;27;34496;-85
2022/10/17 05:12:50;;;;;;;16.62;9.07;;;;;;;8.77;100.00;101851.13;6564698;27;33193;-85
2022/10/17 05:15:57;;;;;;;17.17;9.20;;;;;;;8.74;100.00;101854.91;6577039;27;34048;-84
2022/10/17 05:19:01;;;;;;;16.60;8.50;;;;;;;8.73;100.00;101855.06;6583547;27;34357;-86
2022/10/17 05:22:05;;;;;;;17.85;9.00;;;;;;;8.72;100.00;101853.38;6565605;27;33154;-85
2022/10/17 05:25:08;;;;;;;19.90;9.55;;;;;;;8.72;100.00;101864.97;6562962;27;33483;-85
2022/10/17 05:28:11;;;;;;;15.35;9.27;;;;;;;8.76;100.00;101874.44;6583764;27;34374;-84
2022/10/17 05:31:14;;;;;;;19.30;9.02;;;;;;;8.76;100.00;101874.44;6580503;27;34568;-85
2022/10/17 05:34:17;;;;;;;17.33;9.57;;;;;;;8.80;100.00;101883.09;6581119;27;34630;-85
2022/10/17 05:37:20;;;;;;;17.02;9.25;;;;;;;8.85;100.00;101887.09;6560562;27;33308;-84
2022/10/17 05:40:23;;;;;;;17.12;9.48;;;;;;;8.91;100.00;101892.94;6580586;26;34051;-85
2022/10/17 05:43:27;;;;;;;16.48;9.60;;;;;;;8.92;100.00;101889.25;6558918;27;32735;-85
2022/10/17 05:46:29;;;;;;;22.67;9.68;;;;;;;8.94;100.00;101890.00;6559022;27;32336;-85
2022/10/17 05:49:33;;;;;;;18.27;9.55;;;;;;;9.01;100.00;101896.56;6578608;27;34654;-85
2022/10/17 05:52:52;;;;;;;17.62;10.00;;;;;;;9.05;100.00;101898.84;6578690;27;35758;-85
2022/10/17 05:55:57;;;;;;;14.32;9.27;;;;;;;9.19;100.00;101911.09;6559582;27;32385;-89
2022/10/17 05:59:00;;;;;;;16.92;10.00;;;;;;;9.41;100.00;101911.94;6579923;27;34278;-89
2022/10/17 06:02:03;;;;;;;14.87;9.02;;;;;;;9.52;100.00;101919.94;6558846;27;32576;-86
2022/10/17 06:05:06;;;;;;;18.92;9.75;;;;;;;9.62;100.00;101919.97;6579720;27;34499;-86
2022/10/17 06:08:09;;;;;;;14.57;9.65;;;;;;;9.74;100.00;101921.63;6579470;27;35789;-85
2022/10/17 06:11:12;;;;;;;16.12;9.40;;;;;;;9.92;100.00;101932.59;6558216;27;33002;-85
2022/10/17 06:14:15;;;;;;;19.05;9.23;;;;;;;10.02;100.00;101933.47;6579715;27;33675;-86
2022/10/17 06:17:18;;;;;;;20.48;10.32;;;;;;;10.17;100.00;101933.94;6580766;27;33735;-86
2022/10/17 06:20:20;;;;;;;17.17;9.13;;;;;;;10.23;100.00;101934.22;6579491;27;34708;-86
2022/10/17 06:23:24;;;;;;;20.80;10.23;;;;;;;10.35;100.00;101943.09;6579954;27;34580;-86
2022/10/17 06:26:27;;;;;;;20.23;10.25;;;;;;;10.51;100.00;101955.19;6559094;27;33372;-85
2022/10/17 06:29:33;;;;;;;16.52;9.82;;;;;;;10.64;100.00;101948.53;6560556;27;33218;-85
2022/10/17 06:32:36;;;;;;;15.98;9.40;;;;;;;10.83;100.00;101952.25;6582211;27;34515;-85
2022/10/17 06:35:40;;;;;;;13.82;9.10;;;;;;;10.92;100.00;101955.94;6581238;27;33555;-85
2022/10/17 06:38:42;;;;;;;16.83;10.20;;;;;;;11.00;100.00;101965.03;6559982;27;34105;-86
2022/10/17 06:41:47;;;;;;;15.98;9.57;;;;;;;11.07;100.00;101968.84;6558038;27;32707;-85
2022/10/17 06:44:51;;;;;;;14.52;10.05;;;;;;;11.15;100.00;101967.28;6579952;27;33565;-85
2022/10/17 06:47:54;;;;;;;22.67;9.27;;;;;;;11.27;100.00;101974.22;6579097;27;34113;-85
2022/10/17 06:50:59;;;;;;;20.12;10.32;;;;;;;11.43;100.00;101974.47;6578450;27;33911;-84
2022/10/17 06:54:03;;;;;;;19.87;10.00;;;;;;;11.62;100.00;101979.00;6579146;27;33963;-85
2022/10/17 06:57:06;;;;;;;15.95;10.50;;;;;;;11.66;100.00;101982.25;6558612;27;32401;-85
2022/10/17 07:00:10;;;;;;;19.23;10.60;;;;;;;11.77;100.00;101982.09;6579064;27;34419;-85
2022/10/17 07:03:13;;;;;;;16.75;10.20;;;;;;;11.90;100.00;101984.50;6579257;27;33605;-85
2022/10/17 07:06:16;;;;;;;15.50;9.93;;;;;;;12.08;100.00;101980.03;6579426;27;34147;-85
2022/10/17 07:09:20;;;;;;;19.30;10.60;;;;;;;12.21;100.00;101983.22;6558021;27;33105;-85
2022/10/17 07:12:23;;;;;;;18.98;10.52;;;;;;;12.35;100.00;101984.59;6559322;27;33246;-86
2022/10/17 07:15:26;;;;;;;17.37;10.55;;;;;;;12.50;97.63;101995.75;6580272;27;34053;-88
2022/10/17 07:18:30;;;;;;;20.62;10.65;;;;;;;12.59;97.24;101989.44;6566404;27;32869;-84
2022/10/17 07:21:33;;;;;;;18.23;11.00;;;;;;;12.82;97.13;101995.25;6582593;27;34055;-85
2022/10/17 07:24:41;;;;;;;20.58;10.85;;;;;;;12.97;90.57;101994.72;6583609;27;34110;-86
2022/10/17 07:27:48;;;;;;;16.75;10.40;;;;;;;12.91;89.13;101990.78;6583012;27;34321;-83
2022/10/17 07:30:51;;;;;;;16.52;9.90;;;;;;;12.99;89.78;102000.84;6579021;27;34028;-86
2022/10/17 07:33:58;;;;;;;18.87;10.50;;;;;;;13.23;88.61;101994.81;6560325;27;32335;-86
2022/10/17 07:37:02;;;;;;;18.55;10.20;;;;;;;13.49;88.41;102000.31;6579875;27;35392;-87
2022/10/17 07:40:07;;;;;;;16.80;10.50;;;;;;;13.59;86.82;101996.47;6559116;27;33702;-85
2022/10/17 07:43:11;;;;;;;19.40;9.80;;;;;;;13.79;87.04;101994.41;6558601;27;33084;-84
2022/10/17 07:46:14;;;;;;;17.42;9.43;;;;;;;13.98;85.51;101997.91;6578024;27;34051;-85
2022/10/17 07:49:17;;;;;;;15.13;9.82;;;;;;;14.11;80.75;102001.03;6579234;27;33920;-85
2022/10/17 07:52:20;;;;;;;15.88;9.82;;;;;;;14.14;79.36;102005.28;6578571;27;34288;-85
2022/10/17 07:55:23;;;;;;;16.85;10.07;;;;;;;14.32;78.55;101997.91;6558900;27;32359;-89
2022/10/17 07:58:27;;;;;;;16.85;10.25;;;;;;;14.42;79.70;101995.06;6580147;27;34755;-88
2022/10/17 08:01:30;;;;;;;16.25;10.07;;;;;;;14.44;79.48;102004.75;6597458;27;33980;-88
2022/10/17 08:04:33;;;;;;;19.77;10.45;;;;;;;14.60;77.48;102003.16;6583766;27;35459;-89
2022/10/17 08:07:36;;;;;;;18.00;9.85;;;;;;;14.65;74.11;102007.03;6557703;27;33141;-86
2022/10/17 08:10:39;;;;;;;15.80;10.00;;;;;;;14.71;74.56;102008.25;6558697;27;33427;-86
2022/10/17 08:13:42;;;;;;;18.60;10.70;;;;;;;14.79;74.74;102015.56;6558699;27;32685;-85
2022/10/17 08:16:45;;;;;;;14.07;9.32;;;;;;;14.91;72.84;102025.09;6578231;27;34324;-85
2022/10/17 08:19:47;;;;;;;18.30;10.32;;;;;;;15.10;73.35;102019.38;6558726;27;32642;-85
2022/10/17 08:23:02;;;;;;;16.70;10.20;;;;;;;15.33;73.77;102025.00;6578310;27;34691;-85
2022/10/17 08:26:09;;;;;;;17.70;10.90;;;;;;;15.34;69.84;102015.81;6578197;27;33907;-85
2022/10/17 08:29:15;;;;;;;;;;;;;;;15.44;69.55;102015.66;6558855;27;32932;-85
2022/10/17 08:32:25;;;;;;;18.05;10.00;;;;;;;15.54;68.79;102023.63;6558471;27;34582;-85
2022/10/17 08:35:28;;;;;;;19.85;10.38;;;;;;;15.71;67.94;102019.94;6578469;27;33946;-85
2022/10/17 08:38:32;;;;;;;15.88;10.15;;;;;;;15.86;67.83;102022.78;6578841;27;34280;-85
2022/10/17 08:41:56;;;;;;;19.00;9.73;;;;;;;16.09;67.80;102015.59;6578056;27;34079;-85
2022/10/17 08:45:41;;;;;;;18.20;11.40;;;;;;;16.14;66.27;102011.50;6578323;27;33978;-85
2022/10/17 08:48:46;;;;;;;17.60;9.70;;;;;;;16.28;65.52;102010.78;6567305;27;34406;-85
2022/10/17 08:51:56;;;;;;;16.20;9.77;;;;;;;16.45;66.21;102015.12;6558914;27;32531;-85
2022/10/17 08:54:59;;;;;;;16.67;10.48;;;;;;;16.67;64.76;102008.06;6578927;27;33831;-85
2022/10/17 08:58:04;;;;;;;20.27;9.88;;;;;;;16.80;62.21;102015.69;6578898;27;34891;-85
2022/10/17 09:01:24;;;;;;;14.52;9.30;;;;;;;16.87;62.24;102016.63;6578453;27;33796;-85
2022/10/17 09:05:04;;;;;;;17.90;9.93;;;;;;;16.90;61.24;102008.12;6578159;27;34037;-85
2022/10/17 09:08:16;;;;;;;16.83;10.38;;;;;;;16.96;62.22;102014.72;6578358;27;34823;-85
2022/10/17 09:11:45;;;;;;;18.27;9.82;;;;;;;17.12;61.29;102013.78;6580410;27;34618;-85
2022/10/17 09:15:01;;;;;;;13.82;9.18;;;;;;;17.27;61.02;102008.38;6579772;27;34253;-85
2022/10/17 09:18:17;;;;;;;14.65;9.40;;;;;;;17.55;60.46;102003.19;6579511;27;34344;-84
2022/10/17 09:21:48;;;;;;;19.10;9.70;;;;;;;17.73;60.30;102003.72;6580978;27;33758;-85
2022/10/17 09:25:05;;;;;;;12.48;8.63;;;;;;;17.78;58.62;102003.19;6585899;27;33714;-85
2022/10/17 09:28:08;;;;;;;15.15;9.00;;;;;;;17.92;60.38;102002.38;6568264;27;33367;-89
2022/10/17 09:31:18;;;;;;;12.60;8.43;;;;;;;18.11;60.22;102003.72;6583964;27;34448;-87
2022/10/17 09:34:23;;;;;;;20.02;9.38;;;;;;;18.38;57.80;102002.19;6579259;27;34238;-85
2022/10/17 09:37:31;;;;;;;15.93;8.50;;;;;;;18.40;57.37;102000.13;6581633;27;33771;-85
2022/10/17 09:40:35;;;;;;;13.88;8.38;;;;;;;18.52;55.32;101995.87;6582418;27;34490;-85
2022/10/17 09:43:39;;;;;;;15.23;8.77;;;;;;;18.64;55.46;101998.09;6563424;27;32420;-85
2022/10/17 09:47:02;;;;;;;14.10;8.20;;;;;;;18.69;54.62;101999.22;6576746;27;33866;-85
2022/10/17 09:50:32;;;;;;;14.45;7.87;;;;;;;18.88;54.57;102000.50;6558718;27;33258;-85
2022/10/17 09:53:39;;;;;;;12.52;7.80;;;;;;;18.75;52.87;101992.19;6578133;27;34519;-85
2022/10/17 09:57:15;;;;;;;13.05;7.10;;;;;;;18.88;52.21;101994.22;6578244;27;34186;-85
2022/10/17 10:00:36;;;;;;;12.65;7.45;;;;;;;19.00;51.83;101993.50;6576539;27;34360;-85
2022/10/17 10:03:39;;;;;;;8.57;6.12;;;;;;;19.06;51.70;101996.50;6576828;27;34483;-85
2022/10/17 10:07:04;;;;;;;13.85;4.90;;;;;;;19.32;52.74;101994.00;6558344;27;33677;-85
2022/10/17 10:10:24;;;;;;;8.05;4.68;;;;;;;19.29;48.84;101988.09;6558076;27;32839;-87
2022/10/17 10:13:32;;;;;;;9.70;5.25;;;;;;;19.08;51.36;102000.72;6578473;27;34184;-85
2022/10/17 10:16:42;;;;;;;7.18;4.65;;;;;;;19.10;50.23;101990.47;6578679;27;34056;-85
2022/10/17 10:19:49;;;;;;;7.50;5.20;;;;;;;19.13;48.58;101986.47;6558546;27;33133;-85
2022/10/17 10:23:12;;;;;;;8.00;4.75;;;;;;;19.21;48.97;101983.63;6558444;27;32411;-85
2022/10/17 10:26:24;;;;;;;8.82;4.78;;;;;;;19.42;47.62;101985.47;6542100;27;32306;-85
2022/10/17 10:29:32;;;;;;;7.82;4.37;;;;;;;19.73;46.95;101982.41;6577774;27;33943;-87
2022/10/17 10:32:36;;;;;;;7.60;4.18;;;;;;;19.86;46.76;101990.72;6578474;27;34467;-87
2022/10/17 10:35:39;;;;;;;6.05;4.32;;;;;;;19.98;46.75;101979.19;6578371;27;33889;-88
2022/10/17 10:38:52;;;;;;;6.72;4.60;;;;;;;20.04;45.34;101978.41;6578581;27;34190;-87
2022/10/17 10:41:55;;;;;;;5.85;3.75;;;;;;;20.28;45.34;101977.06;6559232;27;34302;-87
2022/10/17 10:45:11;;;;;;;9.10;4.40;;;;;;;20.34;45.72;101968.87;6580901;27;34387;-87
2022/10/17 10:48:35;;;;;;;14.15;4.70;;;;;;;20.39;46.01;101971.84;6589404;27;34827;-87
2022/10/17 10:51:47;;;;;;;8.18;4.45;;;;;;;20.60;44.62;101964.59;6577381;27;32560;-87
2022/10/17 10:55:02;;;;;;;6.97;4.50;;;;;;;20.67;45.74;101970.91;6579947;27;34393;-91
2022/10/17 10:58:26;;;;;;;5.97;4.30;;;;;;;20.86;45.57;101963.81;6579251;27;34308;-87
2022/10/17 11:01:49;;;;;;;8.05;4.20;;;;;;;20.91;45.01;101958.53;6579044;27;34605;-87
2022/10/17 11:04:59;;;;;;;5.45;4.37;;;;;;;21.34;43.72;101954.59;6561235;27;32745;-86
2022/10/17 11:08:23;;;;;;;8.40;4.28;;;;;;;21.82;45.20;101966.19;6579996;27;33977;-86
2022/10/17 11:11:33;;;;;;;5.93;3.97;;;;;;;21.96;42.44;101956.84;6579131;27;34138;-87
2022/10/17 11:15:00;;;;;;;6.65;3.95;;;;;;;22.59;40.74;101956.22;6579520;27;33579;-86
2022/10/17 11:18:05;;;;;;;4.47;3.78;;;;;;;22.95;39.45;101953.94;6559950;27;33648;-87
2022/10/17 11:21:19;;;;;;;9.15;4.00;;;;;;;23.02;39.10;101947.34;6587753;27;34082;-86
2022/10/17 11:24:58;;;;;;;7.05;4.00;;;;;;;23.42;38.79;101952.50;6570096;27;32829;-86
2022/10/17 11:28:03;;;;;;;6.75;3.83;;;;;;;23.61;37.76;101944.31;6571775;27;293488;-87
2022/10/17 11:31:11;;;;;;;7.45;4.30;;;;;;;24.53;37.31;101931.41;6585109;27;35672;-87
2022/10/17 11:34:20;;;;;;;9.90;4.00;;;;;;;25.09;34.69;101930.12;6559560;27;32334;-87
2022/10/17 11:37:28;;;;;;;5.93;4.32;;;;;;;25.50;34.42;101928.41;6578831;27;34201;-87
2022/10/17 11:40:34;;;;;;;5.53;3.72;;;;;;;26.40;33.55;101927.06;6578335;27;33771;-87
2022/10/17 11:43:51;;;;;;;9.27;4.10;;;;;;;27.63;31.51;101922.88;6558543;27;33568;-87
2022/10/17 11:47:04;;;;;;;7.43;3.80;;;;;;;27.21;30.13;101928.87;6579226;27;34653;-87
2022/10/17 11:50:29;;;;;;;6.12;3.78;;;;;;;28.71;29.51;101921.22;6579958;27;33871;-86
2022/10/17 11:54:17;;;;;;;6.97;3.87;;;;;;;29.57;27.04;101909.19;6579269;27;34491;-86
2022/10/17 11:57:33;;;;;;;6.53;3.92;;;;;;;31.17;25.45;101909.41;6559643;27;32633;-87
2022/10/17 12:00:53;;;;;;;;;;;;;;;32.06;24.51;101914.56;6580600;27;33846;-91
2022/10/17 12:04:14;;;;;;;7.28;3.70;;;;;;;32.52;23.64;101912.34;6578237;27;34447;-87
2022/10/17 12:07:42;;;;;;;5.07;3.37;;;;;;;33.47;22.55;101899.03;6594558;27;34201;-87
2022/10/17 12:11:00;;;;;;;6.95;3.50;;;;;;;34.64;21.26;101899.53;6571414;27;32498;-87
2022/10/17 12:14:37;;;;;;;5.37;3.12;;;;;;;34.28;22.02;101896.38;6558747;27;33079;-87
2022/10/17 12:17:45;;;;;;;6.07;4.07;;;;;;;32.88;22.75;101900.09;6578784;27;34133;-87
2022/10/17 12:20:59;;;;;;;3.97;3.28;;;;;;;33.23;22.27;101895.34;6558719;27;33696;-87
2022/10/17 12:24:01;;;;;;;3.85;3.15;;;;;;;34.61;20.94;101888.13;6578227;27;33985;-87
2022/10/17 12:27:37;;;;;;;3.08;2.75;;;;;;;35.60;20.58;101884.13;6578361;27;34817;-87
2022/10/17 12:30:54;;;;;;;3.25;2.60;;;;;;;36.65;19.00;101884.09;6579692;27;34567;-87
2022/10/17 12:33:59;;;;;;;5.35;2.87;;;;;;;36.06;18.77;101875.59;6579585;27;34120;-88
2022/10/17 12:37:02;;;;;;;6.03;2.87;;;;;;;34.05;20.90;101876.59;6579745;27;34086;-88
2022/10/17 12:40:33;;;;;;;3.53;2.95;;;;;;;33.93;21.07;101873.38;6579320;27;33684;-87
2022/10/17 12:43:46;;;;;;;3.85;3.08;;;;;;;31.02;23.47;101870.47;6579195;27;33860;-88
2022/10/17 12:46:50;;;;;;;6.75;3.30;;;;;;;28.60;26.96;101868.72;6579293;27;34220;-87
2022/10/17 12:49:53;;;;;;;4.22;3.10;;;;;;;27.27;29.17;101875.34;6578966;27;34966;-87
2022/10/17 12:53:05;;;;;;;6.22;3.47;;;;;;;25.97;30.70;101878.75;6558964;27;32312;-87
2022/10/17 12:56:08;;;;;;;7.78;3.50;;;;;;;25.21;32.25;101871.47;6579090;27;33525;-87
2022/10/17 12:59:19;;;;;;;6.50;3.35;;;;;;;24.13;33.92;101873.25;6558834;27;32627;-87
2022/10/17 13:02:27;;;;;;;7.35;2.90;;;;;;;23.47;35.39;101875.69;6577375;27;34041;-87
2022/10/17 13:05:33;;;;;;;5.82;3.83;;;;;;;23.20;35.97;101875.13;6578896;27;34615;-86
2022/10/17 13:08:42;;;;;;;4.93;3.33;;;;;;;22.83;37.24;101874.13;6578147;27;34935;-87
2022/10/17 13:11:44;;;;;;;4.28;3.22;;;;;;;22.74;37.34;101868.06;6578451;27;34048;-87
2022/10/17 13:14:50;;;;;;;5.43;3.25;;;;;;;22.56;37.10;101863.34;6560258;27;32594;-87
2022/10/17 13:17:57;;;;;;;4.40;3.28;;;;;;;22.26;38.31;101862.25;6583361;27;33737;-87
2022/10/17 13:21:05;;;;;;;5.53;3.37;;;;;;;22.14;38.53;101864.81;6584311;27;34230;-87
2022/10/17 13:24:40;;;;;;;4.10;2.90;;;;;;;22.04;38.33;101867.19;6561101;27;32636;-87
2022/10/17 13:27:43;;;;;;;6.65;3.45;;;;;;;21.74;39.45;101860.34;6546006;27;33880;-87
2022/10/17 13:30:46;;;;;;;4.30;3.22;;;;;;;21.59;39.05;101859.75;6578780;27;33631;-87
2022/10/17 13:33:55;;;;;;;3.28;2.97;;;;;;;21.57;39.29;101858.28;6578950;27;34106;-87
2022/10/17 13:37:09;;;;;;;3.53;3.12;;;;;;;21.47;38.71;101858.72;6584513;27;33983;-87
2022/10/17 13:40:18;;;;;;;3.28;2.83;;;;;;;21.41;37.69;101860.44;6594640;27;34587;-87
2022/10/17 13:43:40;;;;;;;6.22;3.10;;;;;;;21.15;39.29;101854.91;6586127;27;34342;-86
2022/10/17 13:46:44;;;;;;;4.30;2.97;;;;;;;21.01;39.34;101854.94;6562001;27;34376;-87
2022/10/17 13:49:46;;;;;;;7.30;3.17;;;;;;;21.03;38.98;101857.47;6579823;27;34356;-85
2022/10/17 13:53:15;;;;;;;5.75;2.92;;;;;;;20.93;39.60;101860.63;6558405;27;34639;-85
2022/10/17 13:56:24;;;;;;;3.78;2.75;;;;;;;21.06;38.04;101859.81;6577863;27;33966;-84
2022/10/17 13:59:40;;;;;;;4.47;2.90;;;;;;;20.91;39.12;101851.78;6558213;27;33605;-84
2022/10/17 14:02:42;;;;;;;4.57;3.20;;;;;;;20.93;38.53;101854.31;6549913;27;34540;-86
2022/10/17 14:06:25;;;;;;;5.03;2.90;;;;;;;20.89;38.58;101856.63;6551421;27;34096;-85
2022/10/17 14:09:29;;;;;;;7.10;3.28;;;;;;;20.79;40.18;101847.97;6441661;27;32528;-84
2022/10/17 14:12:33;;;;;;;3.90;2.95;;;;;;;20.71;40.15;101840.84;6442385;27;32253;-86
2022/10/17 14:15:36;;;;;;;7.28;3.12;;;;;;;20.74;40.02;101853.25;6550937;27;34002;-85
2022/10/17 14:18:39;;;;;;;3.97;3.22;;;;;;;20.58;41.39;101846.28;6552494;27;34944;-87
2022/10/17 14:21:47;;;;;;;6.43;3.72;;;;;;;20.62;40.13;101844.81;6553769;27;34337;-85
2022/10/17 14:24:52;;;;;;;8.60;3.45;;;;;;;20.55;42.19;101839.31;6555005;27;33790;-84
2022/10/17 14:28:08;;;;;;;7.20;3.28;;;;;;;20.30;41.73;101840.91;6533754;27;32735;-87
2022/10/17 14:31:19;;;;;;;4.95;3.05;;;;;;;20.32;41.96;101845.12;6553272;27;34018;-87
2022/10/17 14:34:28;;;;;;;8.40;3.20;;;;;;;20.28;41.07;101843.87;6553115;27;34884;-85
2022/10/17 14:37:47;;;;;;;5.43;3.50;;;;;;;20.24;41.25;101844.47;6553584;27;33770;-85
2022/10/17 14:40:52;;;;;;;6.03;3.37;;;;;;;20.16;41.27;101843.63;6553127;27;33715;-85
2022/10/17 14:44:23;;;;;;;4.93;3.10;;;;;;;20.10;41.84;101840.88;6552161;27;34353;-85
2022/10/17 14:47:27;;;;;;;6.25;3.70;;;;;;;20.00;41.68;101840.41;6553716;27;34780;-85
2022/10/17 14:51:13;;;;;;;5.35;3.20;;;;;;;20.04;41.41;101839.81;6531871;27;32495;-85
2022/10/17 14:54:22;;;;;;;5.53;3.45;;;;;;;19.91;42.03;101840.59;6533389;27;32543;-85
2022/10/17 14:57:25;;;;;;;7.32;3.65;;;;;;;19.92;41.76;101838.72;6552260;27;34483;-85
2022/10/17 15:00:28;;;;;;;7.93;3.50;;;;;;;19.90;42.32;101841.66;6558947;27;33655;-85
2022/10/17 15:03:31;;;;;;;6.18;3.70;;;;;;;19.69;43.27;101839.03;6559083;27;33162;-84
2022/10/17 15:06:34;;;;;;;7.07;3.30;;;;;;;19.51;44.06;101841.41;6560122;27;33872;-85
2022/10/17 15:09:37;;;;;;;4.62;3.58;;;;;;;19.36;45.20;101838.78;6579218;27;34574;-85
2022/10/17 15:12:39;;;;;;;5.10;3.87;;;;;;;19.37;44.08;101843.22;6579695;27;34122;-85
2022/10/17 15:16:00;;;;;;;7.78;3.65;;;;;;;19.36;43.93;101850.56;6582457;27;33913;-85
2022/10/17 15:19:03;;;;;;;8.98;3.87;;;;;;;19.31;44.82;101852.22;6563429;27;32824;-85
2022/10/17 15:22:06;;;;;;;7.55;3.65;;;;;;;19.20;45.21;101846.25;6566508;27;32431;-85
2022/10/17 15:25:08;;;;;;;13.80;4.07;;;;;;;19.06;46.51;101847.19;6562836;27;33940;-86
2022/10/17 15:28:12;;;;;;;7.68;3.65;;;;;;;18.98;45.64;101847.31;6564460;27;32234;-85
2022/10/17 15:31:17;;;;;;;5.03;3.92;;;;;;;18.92;46.13;101853.59;6560140;27;33425;-85
2022/10/17 15:34:22;;;;;;;6.30;3.62;;;;;;;18.83;47.15;101850.16;6579705;27;34392;-85
2022/10/17 15:37:25;;;;;;;8.75;3.65;;;;;;;18.65;47.39;101858.75;6580017;27;34915;-85
2022/10/17 15:40:28;;;;;;;7.85;3.70;;;;;;;18.56;48.21;101860.78;6580532;27;34018;-85
2022/10/17 15:43:31;;;;;;;4.62;3.12;;;;;;;18.45;47.90;101864.00;6580952;27;34081;-85
2022/10/17 15:46:34;;;;;;;6.10;4.03;;;;;;;18.31;49.01;101867.63;6586074;27;34692;-85
2022/10/17 15:49:38;;;;;;;9.07;3.83;;;;;;;18.21;49.75;101870.66;6579543;27;34846;-85
2022/10/17 15:52:40;;;;;;;7.97;3.67;;;;;;;18.04;51.02;101870.03;6559937;27;32659;-85
2022/10/17 15:55:43;;;;;;;6.30;4.18;;;;;;;17.88;52.23;101862.94;6579577;27;34776;-85
2022/10/17 15:58:46;;;;;;;8.07;4.05;;;;;;;17.69;53.61;101877.94;6559819;27;32666;-85
